Time;durP1;ratioP1;P1;durP2;ratioP2;P2;SDS_P1;SDS_P2;PMS_P1;PMS_P2;Temp;Humidity;BMP_temperature;BMP_pressure;BME280_temperature;BME280_humidity;BME280_pressure;Samples;Min_cycle;Max_cycle;Signal;HPM_P1;HPM_P2
2023/05/29 00:00:07;;;;;;;6.75;3.47;;;;;;;15.31;66.78;99915.00;12218956;19;20015;-78
2023/05/29 00:04:13;;;;;;;8.25;3.72;;;;;;;15.23;68.23;99905.31;12211414;19;20015;-78
2023/05/29 00:08:15;;;;;;;8.57;3.27;;;;;;;15.16;69.81;99907.53;12189091;19;20042;-78
2023/05/29 00:12:18;;;;;;;6.75;2.70;;;;;;;15.07;70.46;99903.63;12212894;19;20018;-78
2023/05/29 00:16:20;;;;;;;5.72;2.80;;;;;;;14.99;70.44;99905.00;12212838;19;20027;-79
2023/05/29 00:20:22;;;;;;;8.52;3.70;;;;;;;14.90;71.85;99910.31;12190889;19;20010;-79
2023/05/29 00:24:24;;;;;;;6.40;2.85;;;;;;;14.85;72.26;99904.75;12212476;19;20034;-78
2023/05/29 00:28:26;;;;;;;6.53;2.70;;;;;;;14.82;73.37;99913.63;12214273;19;20023;-78
2023/05/29 00:32:28;;;;;;;6.65;3.55;;;;;;;14.78;74.32;99906.94;12190609;19;20015;-78
2023/05/29 00:36:31;;;;;;;7.00;2.67;;;;;;;14.70;75.13;99905.56;12214113;19;20066;-78
2023/05/29 00:40:33;;;;;;;4.77;2.63;;;;;;;14.63;76.05;99898.59;12209173;19;20027;-78
2023/05/29 00:44:36;;;;;;;7.43;3.97;;;;;;;14.54;75.64;99904.66;12191092;19;20015;-78
2023/05/29 00:48:38;;;;;;;5.82;3.13;;;;;;;14.48;75.34;99894.66;12212556;19;20091;-79
2023/05/29 00:52:41;;;;;;;7.03;3.08;;;;;;;14.45;77.48;99903.50;12212350;19;20010;-78
2023/05/29 00:56:43;;;;;;;6.80;2.83;;;;;;;14.41;77.87;99902.41;12186756;19;20013;-78
2023/05/29 01:00:46;;;;;;;7.10;3.08;;;;;;;14.35;77.38;99898.78;12206529;19;20014;-78
2023/05/29 01:04:48;;;;;;;5.50;3.20;;;;;;;14.31;77.16;99888.53;12206468;19;20014;-78
2023/05/29 01:08:50;;;;;;;6.33;3.17;;;;;;;14.24;78.32;99890.69;12187433;19;20017;-78
2023/05/29 01:13:14;;;;;;;7.22;3.33;;;;;;;14.20;79.54;99897.91;12199922;19;20014;-77
2023/05/29 01:17:32;;;;;;;7.60;2.78;;;;;;;14.15;79.41;99893.16;12187599;19;20011;-78
2023/05/29 01:21:43;;;;;;;7.03;3.33;;;;;;;14.09;79.51;99894.25;12205986;19;20040;-78
2023/05/29 01:26:06;;;;;;;7.85;3.40;;;;;;;14.05;79.64;99882.88;12207015;19;20019;-77
2023/05/29 01:30:12;;;;;;;6.82;2.92;;;;;;;14.02;80.51;99882.59;12184460;19;20366;-78
2023/05/29 01:34:14;;;;;;;6.53;2.93;;;;;;;13.98;79.84;99878.69;12215731;19;20010;-78
2023/05/29 01:38:17;;;;;;;6.63;2.90;;;;;;;14.01;78.44;99887.31;12197388;19;20006;-78
2023/05/29 01:42:20;;;;;;;6.18;3.17;;;;;;;14.04;77.65;99885.91;12215261;19;20002;-78
2023/05/29 01:46:25;;;;;;;7.10;3.30;;;;;;;14.04;77.85;99895.09;12218779;19;20460;-78
2023/05/29 01:50:28;;;;;;;9.30;3.55;;;;;;;14.01;77.16;99890.09;12195053;19;20019;-78
2023/05/29 01:54:31;;;;;;;6.50;3.08;;;;;;;14.02;76.66;99888.97;12216886;19;20018;-79
2023/05/29 01:58:34;;;;;;;7.65;3.10;;;;;;;14.02;77.01;99886.19;12210674;19;20013;-77
2023/05/29 02:02:38;;;;;;;8.52;3.65;;;;;;;14.02;75.77;99886.19;12203780;19;20010;-78
2023/05/29 02:06:39;;;;;;;6.40;3.28;;;;;;;14.05;75.97;99882.88;12228042;19;20017;-78
2023/05/29 02:10:41;;;;;;;7.82;3.53;;;;;;;14.02;75.94;99883.44;12210964;19;20011;-78
2023/05/29 02:14:43;;;;;;;9.57;3.50;;;;;;;14.03;74.85;99882.31;12197343;19;20006;-78
2023/05/29 02:18:45;;;;;;;8.43;3.00;;;;;;;14.05;75.68;99882.88;12220318;19;20014;-78
2023/05/29 02:22:47;;;;;;;7.80;3.15;;;;;;;14.06;74.98;99884.53;12220543;19;20372;-79
2023/05/29 02:26:52;;;;;;;7.32;3.00;;;;;;;14.02;74.97;99877.88;12195372;19;20011;-78
2023/05/29 02:30:54;;;;;;;6.68;3.00;;;;;;;13.99;75.83;99877.59;12219541;19;20010;-78
2023/05/29 02:34:57;;;;;;;7.67;3.10;;;;;;;13.93;75.56;99876.75;12223874;19;20025;-79
2023/05/29 02:38:59;;;;;;;6.88;3.45;;;;;;;13.95;74.96;99877.31;12193922;19;20023;-78
2023/05/29 02:43:01;;;;;;;4.80;2.70;;;;;;;13.91;75.38;99881.72;12250989;19;20025;-79
2023/05/29 02:47:05;;;;;;;8.80;3.42;;;;;;;13.87;75.71;99886.13;12229151;19;20007;-78
2023/05/29 02:51:07;;;;;;;8.43;3.28;;;;;;;13.81;76.30;99884.44;12220569;19;20011;-78
2023/05/29 02:55:08;;;;;;;8.32;3.05;;;;;;;13.76;77.01;99882.47;12217386;19;20500;-79
2023/05/29 02:59:10;;;;;;;8.90;4.28;;;;;;;13.74;76.89;99890.25;12196409;19;20348;-79
2023/05/29 03:03:12;;;;;;;8.98;3.30;;;;;;;13.70;77.20;99888.25;12216179;19;20011;-79
2023/05/29 03:07:14;;;;;;;8.65;3.60;;;;;;;13.66;77.55;99886.03;12218476;19;20026;-79
2023/05/29 03:11:17;;;;;;;6.43;3.60;;;;;;;13.66;78.35;99893.50;12193329;19;20467;-78
2023/05/29 03:15:20;;;;;;;8.20;3.40;;;;;;;13.64;78.72;99893.75;12217115;19;20381;-79
2023/05/29 03:19:22;;;;;;;6.63;3.20;;;;;;;13.59;79.35;99899.28;12212784;19;20051;-78
2023/05/29 03:23:24;;;;;;;7.22;3.42;;;;;;;13.52;79.52;99890.38;12193918;19;20016;-79
2023/05/29 03:27:29;;;;;;;7.20;3.25;;;;;;;13.47;80.75;99889.50;12215168;19;20023;-78
2023/05/29 03:31:40;;;;;;;9.30;3.25;;;;;;;13.43;81.28;99886.44;12212162;19;20090;-78
2023/05/29 03:35:41;;;;;;;5.88;3.10;;;;;;;13.36;82.78;99886.69;12193702;19;20429;-77
2023/05/29 03:39:44;;;;;;;7.57;3.25;;;;;;;13.33;81.77;99895.50;12208102;19;20464;-79
2023/05/29 03:43:47;;;;;;;7.85;3.55;;;;;;;13.32;82.31;99902.13;12212234;19;20006;-78
2023/05/29 03:47:50;;;;;;;6.28;3.22;;;;;;;13.29;82.62;99912.91;12190855;19;20035;-77
2023/05/29 03:51:52;;;;;;;6.40;2.95;;;;;;;13.23;84.94;99915.59;12210129;19;20015;-78
2023/05/29 03:55:54;;;;;;;6.72;2.83;;;;;;;13.20;85.01;99916.13;12212572;19;20029;-78
2023/05/29 03:59:57;;;;;;;5.22;2.90;;;;;;;13.17;87.82;99915.81;12190038;19;20014;-79
2023/05/29 04:03:59;;;;;;;5.97;3.45;;;;;;;13.13;86.61;99921.06;12210585;19;20019;-78
2023/05/29 04:08:04;;;;;;;7.53;3.27;;;;;;;13.10;86.67;99927.13;12212830;19;20006;-79
2023/05/29 04:12:16;;;;;;;8.95;3.38;;;;;;;13.06;87.97;99936.19;12188186;19;20014;-79
2023/05/29 04:16:18;;;;;;;5.80;3.10;;;;;;;13.02;88.26;99946.13;12208204;19;20513;-77
2023/05/29 04:20:21;;;;;;;7.97;3.83;;;;;;;12.99;89.26;99950.25;12189427;19;20115;-79
2023/05/29 04:24:24;;;;;;;5.43;3.00;;;;;;;12.97;89.65;99949.69;12210204;19;20018;-79
2023/05/29 04:28:26;;;;;;;6.03;3.00;;;;;;;12.91;91.76;99954.34;12209006;19;20513;-78
2023/05/29 04:32:29;;;;;;;8.60;3.58;;;;;;;12.87;92.66;99966.19;12190282;19;20010;-79
2023/05/29 04:36:37;;;;;;;8.45;3.88;;;;;;;12.85;93.03;99966.44;12209169;19;20070;-80
2023/05/29 04:40:44;;;;;;;6.10;3.28;;;;;;;12.86;94.31;99970.03;12206574;19;20039;-78
2023/05/29 04:44:54;;;;;;;7.28;3.25;;;;;;;12.84;93.89;99973.06;12186747;19;20018;-79
2023/05/29 04:48:57;;;;;;;8.00;3.42;;;;;;;12.87;93.42;99977.25;12207938;19;20017;-77
2023/05/29 04:53:02;;;;;;;5.93;3.10;;;;;;;12.90;93.71;99976.72;12209528;19;20010;-79
2023/05/29 04:57:08;;;;;;;5.47;3.25;;;;;;;12.94;94.06;99986.19;12186243;19;20006;-78
2023/05/29 05:01:14;;;;;;;8.38;4.10;;;;;;;12.99;93.87;99989.81;12206866;19;20499;-78
2023/05/29 05:05:16;;;;;;;9.25;4.35;;;;;;;13.04;93.59;99994.56;12183467;19;20023;-79
2023/05/29 05:09:18;;;;;;;8.63;3.60;;;;;;;13.12;93.50;99996.88;12206858;19;20006;-79
2023/05/29 05:13:21;;;;;;;;;;;;;;;13.15;94.37;99995.50;12208052;19;20002;-79
2023/05/29 05:17:24;;;;;;;10.20;4.95;;;;;;;13.21;93.24;100000.00;12185610;19;19914;-79
2023/05/29 05:21:26;;;;;;;7.90;3.28;;;;;;;13.28;92.86;99997.03;12205629;19;20552;-78
2023/05/29 05:25:34;;;;;;;5.90;3.17;;;;;;;13.35;93.54;100005.94;12206306;19;19999;-78
2023/05/29 05:29:36;;;;;;;8.73;3.47;;;;;;;13.43;93.67;100002.69;12185589;19;20011;-79
2023/05/29 05:33:39;;;;;;;7.32;3.67;;;;;;;13.53;92.23;100010.25;12206791;19;20006;-78
2023/05/29 05:37:41;;;;;;;6.85;3.25;;;;;;;13.63;91.53;100008.41;12205812;19;20011;-79
2023/05/29 05:41:46;;;;;;;9.05;3.78;;;;;;;13.72;91.53;100028.13;12183412;19;20547;-78
2023/05/29 05:45:53;;;;;;;7.35;3.28;;;;;;;13.77;93.12;100030.09;12205708;19;20571;-78
2023/05/29 05:49:57;;;;;;;7.03;3.42;;;;;;;13.86;92.16;100021.03;12202709;19;20011;-78
2023/05/29 05:53:59;;;;;;;6.63;3.53;;;;;;;13.95;91.40;100029.69;12185703;19;20039;-79
2023/05/29 05:58:03;;;;;;;6.47;3.30;;;;;;;14.06;92.11;100028.63;12203707;19;20279;-78
2023/05/29 06:02:05;;;;;;;5.38;3.10;;;;;;;14.20;90.59;100030.94;12195197;19;20015;-78
2023/05/29 06:06:10;;;;;;;6.57;3.20;;;;;;;14.34;90.25;100029.34;12204902;19;20365;-79
2023/05/29 06:10:15;;;;;;;5.35;3.22;;;;;;;14.49;89.82;100036.91;12202363;19;20011;-78
2023/05/29 06:14:17;;;;;;;7.07;3.08;;;;;;;14.59;89.53;100037.81;12182966;19;20017;-78
2023/05/29 06:18:20;;;;;;;6.03;3.42;;;;;;;14.76;88.59;100040.38;12204300;19;20031;-79
2023/05/29 06:22:23;;;;;;;;;;;;;;;14.88;88.40;100040.13;12234404;19;20022;-78
2023/05/29 06:26:30;;;;;;;11.30;3.72;;;;;;;15.07;86.36;100057.09;12236123;19;19911;-80
2023/05/29 06:30:35;;;;;;;6.18;3.70;;;;;;;15.27;85.08;100059.09;12214859;19;20073;-79
2023/05/29 06:34:43;;;;;;;8.52;3.45;;;;;;;15.41;84.43;100054.69;12192261;19;20354;-79
2023/05/29 06:38:50;;;;;;;8.48;3.85;;;;;;;15.60;83.58;100048.59;12201126;19;20073;-79
2023/05/29 06:42:55;;;;;;;6.15;3.20;;;;;;;15.77;81.84;100048.34;12217103;19;20029;-80
2023/05/29 06:47:30;;;;;;;9.00;3.63;;;;;;;16.04;80.36;100053.59;12206294;19;20047;-79
2023/05/29 06:51:35;;;;;;;8.10;3.63;;;;;;;16.31;79.83;100051.31;12221842;19;20006;-81
2023/05/29 06:55:58;;;;;;;6.15;3.13;;;;;;;16.56;78.19;100042.03;12223429;19;20022;-79
2023/05/29 06:59:59;;;;;;;9.73;3.10;;;;;;;16.81;77.35;100038.38;12203929;19;20031;-82
2023/05/29 07:04:04;;;;;;;9.27;3.30;;;;;;;17.08;74.22;100042.69;12222103;19;20023;-81
2023/05/29 07:08:07;;;;;;;;;;;;;;;17.23;72.91;100050.94;12205628;19;20010;-81
2023/05/29 07:12:09;;;;;;;6.87;2.67;;;;;;;17.47;72.80;100055.78;12220889;19;19910;-81
2023/05/29 07:16:11;;;;;;;5.93;2.88;;;;;;;17.76;71.42;100051.09;12219739;19;20015;-80
2023/05/29 07:20:28;;;;;;;7.20;3.38;;;;;;;18.12;69.14;100055.53;12195350;19;20014;-82
2023/05/29 07:24:34;;;;;;;6.05;3.10;;;;;;;18.40;67.16;100062.22;12218619;19;20011;-80
2023/05/29 07:28:38;;;;;;;6.03;3.10;;;;;;;18.59;65.39;100077.06;12219003;19;20022;-80
2023/05/29 07:32:40;;;;;;;9.90;3.50;;;;;;;18.86;65.00;100062.53;12197114;19;20347;-80
2023/05/29 07:37:03;;;;;;;6.13;3.10;;;;;;;19.21;63.99;100065.13;12217312;19;20019;-81
2023/05/29 07:41:07;;;;;;;8.10;3.10;;;;;;;19.50;60.82;100063.00;12192632;19;20014;-80
2023/05/29 07:45:11;;;;;;;9.35;3.30;;;;;;;19.64;58.52;100067.84;12215623;19;20038;-82
2023/05/29 07:49:14;;;;;;;7.53;3.20;;;;;;;19.85;56.47;100063.63;12246350;19;20046;-81
2023/05/29 07:53:16;;;;;;;;;;;;;;;20.04;56.58;100061.59;12205892;19;20296;-82
2023/05/29 07:57:20;;;;;;;5.95;3.25;;;;;;;20.28;56.28;100066.19;12224410;19;19915;-82
2023/05/29 08:01:23;;;;;;;6.60;3.13;;;;;;;20.65;55.79;100070.00;12217655;19;20005;-80
2023/05/29 08:05:25;;;;;;;10.13;3.70;;;;;;;20.93;54.53;100066.03;12200389;19;20020;-80
2023/05/29 08:09:29;;;;;;;6.70;3.00;;;;;;;21.09;53.08;100068.50;12216245;19;20261;-82
2023/05/29 08:13:31;;;;;;;6.57;2.80;;;;;;;21.07;50.74;100070.81;12217568;19;20010;-82
2023/05/29 08:17:33;;;;;;;8.25;3.22;;;;;;;21.17;51.12;100074.19;12199846;19;20487;-80
2023/05/29 08:21:35;;;;;;;8.33;3.40;;;;;;;21.30;49.42;100082.91;12218230;19;20010;-80
2023/05/29 08:25:37;;;;;;;10.97;3.63;;;;;;;21.48;49.01;100086.75;12219796;19;20019;-81
2023/05/29 08:29:38;;;;;;;6.30;3.33;;;;;;;21.68;48.60;100085.41;12197975;19;20239;-81
2023/05/29 08:33:40;;;;;;;5.87;3.07;;;;;;;21.88;47.89;100072.88;12215266;19;20002;-81
2023/05/29 08:37:42;;;;;;;10.00;3.17;;;;;;;22.03;47.22;100080.88;12215672;19;20007;-80
2023/05/29 08:41:55;;;;;;;7.03;3.80;;;;;;;22.32;48.52;100076.81;12189914;19;20456;-80
2023/05/29 08:46:02;;;;;;;5.63;3.35;;;;;;;22.67;47.12;100073.00;12214868;19;20028;-82
2023/05/29 08:50:06;;;;;;;6.82;3.50;;;;;;;22.79;47.00;100075.19;12217589;19;20007;-80
2023/05/29 08:54:07;;;;;;;7.13;3.22;;;;;;;23.02;46.46;100084.38;12196907;19;20003;-81
2023/05/29 08:58:11;;;;;;;5.30;3.13;;;;;;;23.13;46.44;100080.09;12216501;19;20019;-80
2023/05/29 09:02:14;;;;;;;5.70;3.20;;;;;;;23.14;45.53;100076.16;12191770;19;20034;-80
2023/05/29 09:06:17;;;;;;;7.78;3.55;;;;;;;23.37;45.56;100071.22;12215342;19;20010;-80
2023/05/29 09:10:21;;;;;;;6.03;3.05;;;;;;;23.46;45.39;100076.84;12213618;19;20011;-80
2023/05/29 09:14:38;;;;;;;9.88;3.17;;;;;;;23.57;43.87;100083.81;12195320;19;20006;-81
2023/05/29 09:18:41;;;;;;;7.15;3.13;;;;;;;23.71;42.36;100078.06;12215897;19;20027;-81
2023/05/29 09:22:54;;;;;;;5.80;3.00;;;;;;;23.82;41.14;100084.16;12215977;19;20028;-81
2023/05/29 09:26:56;;;;;;;6.25;3.00;;;;;;;23.94;40.87;100081.50;12193249;19;20475;-81
2023/05/29 09:30:58;;;;;;;6.97;3.05;;;;;;;24.09;40.82;100072.56;12215207;19;20015;-80
2023/05/29 09:35:00;;;;;;;6.18;3.08;;;;;;;24.45;40.44;100074.16;12214916;19;20014;-80
2023/05/29 09:39:03;;;;;;;4.80;2.90;;;;;;;24.63;38.28;100068.41;12190265;19;20582;-82
2023/05/29 09:43:19;;;;;;;5.60;3.33;;;;;;;24.55;37.64;100073.75;12208064;19;20013;-83
2023/05/29 09:47:21;;;;;;;6.07;2.65;;;;;;;24.70;38.50;100071.56;12188136;19;20011;-82
2023/05/29 09:51:23;;;;;;;14.45;3.28;;;;;;;24.97;37.71;100073.06;12211007;19;20074;-82
2023/05/29 09:55:28;;;;;;;5.97;3.08;;;;;;;25.04;37.63;100078.16;12228058;19;20014;-82
2023/05/29 09:59:31;;;;;;;7.38;3.00;;;;;;;25.09;37.58;100077.97;12202494;19;20401;-81
2023/05/29 10:03:34;;;;;;;5.75;2.85;;;;;;;25.17;37.29;100069.50;12221958;19;20082;-81
2023/05/29 10:07:43;;;;;;;4.78;2.85;;;;;;;25.27;37.54;100061.81;12266410;19;20014;-79
2023/05/29 10:11:48;;;;;;;6.50;3.10;;;;;;;25.60;36.96;100059.06;12222566;19;20025;-80
2023/05/29 10:15:54;;;;;;;7.22;3.00;;;;;;;25.92;35.88;100052.66;12228609;19;20478;-80
2023/05/29 10:19:59;;;;;;;5.97;2.88;;;;;;;25.78;35.47;100046.44;12230231;19;20337;-83
2023/05/29 10:24:06;;;;;;;6.55;3.00;;;;;;;25.86;35.14;100054.03;12204837;19;20010;-82
2023/05/29 10:28:08;;;;;;;6.68;3.00;;;;;;;25.97;34.76;100043.16;12226264;19;20010;-82
2023/05/29 10:32:27;;;;;;;5.53;2.97;;;;;;;26.19;34.92;100043.91;12204216;19;20018;-80
2023/05/29 10:36:35;;;;;;;5.28;2.65;;;;;;;26.28;34.94;100045.44;12224312;19;20010;-82
2023/05/29 10:40:37;;;;;;;5.50;3.05;;;;;;;26.20;35.36;100043.53;12223132;19;20031;-80
2023/05/29 10:44:40;;;;;;;4.85;3.15;;;;;;;26.33;35.96;100045.22;12199176;19;20021;-80
2023/05/29 10:48:42;;;;;;;6.72;2.83;;;;;;;26.41;35.13;100042.63;12221376;19;20014;-82
2023/05/29 10:52:47;;;;;;;6.43;3.40;;;;;;;26.49;36.19;100039.75;12223217;19;20006;-80
2023/05/29 10:56:56;;;;;;;7.63;3.42;;;;;;;26.59;33.83;100042.13;12203575;19;20010;-82
2023/05/29 11:00:58;;;;;;;4.82;2.88;;;;;;;26.48;34.51;100040.09;12219764;19;20010;-82
2023/05/29 11:05:05;;;;;;;5.93;2.88;;;;;;;26.73;34.26;100036.09;12222350;19;20010;-82
2023/05/29 11:09:39;;;;;;;7.72;3.60;;;;;;;27.07;33.24;100035.97;12196699;19;20495;-80
2023/05/29 11:13:52;;;;;;;5.80;2.95;;;;;;;27.24;33.16;100049.88;12220296;19;20011;-79
2023/05/29 11:17:55;;;;;;;;;;;;;;;27.24;31.79;100027.25;12202140;19;20042;-82
2023/05/29 11:22:14;;;;;;;7.90;3.50;;;;;;;27.55;32.10;100023.75;12220389;19;19927;-83
2023/05/29 11:26:17;;;;;;;7.90;3.40;;;;;;;27.48;31.42;100020.69;12203086;19;20357;-81
2023/05/29 11:30:21;;;;;;;5.90;3.53;;;;;;;27.44;32.50;100026.25;12219765;19;20003;-82
2023/05/29 11:34:27;;;;;;;8.63;3.15;;;;;;;27.36;32.85;100018.72;12222111;19;20019;-82
2023/05/29 11:38:29;;;;;;;5.55;3.38;;;;;;;27.42;33.34;100024.97;12195385;19;20148;-81
2023/05/29 11:42:31;;;;;;;8.10;3.10;;;;;;;28.12;32.87;100019.72;12219101;19;20010;-84
2023/05/29 11:46:34;;;;;;;4.97;2.85;;;;;;;28.70;31.44;100013.53;12212360;19;20020;-82
2023/05/29 11:50:37;;;;;;;10.65;3.47;;;;;;;28.81;29.74;100013.81;12197091;19;20018;-82
2023/05/29 11:54:39;;;;;;;6.60;2.88;;;;;;;28.75;29.73;100018.94;12217834;19;20094;-82
2023/05/29 11:58:41;;;;;;;;;;;;;;;29.03;28.05;100018.00;12218662;19;20011;-82
2023/05/29 12:02:43;;;;;;;10.20;3.40;;;;;;;29.10;27.91;100014.53;12194113;19;19978;-81
2023/05/29 12:06:45;;;;;;;6.75;3.70;;;;;;;29.04;28.22;100011.16;12217922;19;20003;-81
2023/05/29 12:10:51;;;;;;;6.90;3.17;;;;;;;29.34;28.23;100005.75;12218828;19;20007;-82
2023/05/29 12:14:53;;;;;;;4.90;3.10;;;;;;;30.11;26.96;100009.78;12194714;19;20010;-82
2023/05/29 12:18:55;;;;;;;7.85;3.20;;;;;;;30.78;25.88;100003.63;12212259;19;20421;-82
2023/05/29 12:23:01;;;;;;;5.82;3.58;;;;;;;31.55;26.21;100005.22;12211538;19;20019;-83
2023/05/29 12:27:04;;;;;;;6.50;3.42;;;;;;;32.15;25.46;100001.44;12187767;19;20014;-83
2023/05/29 12:31:06;;;;;;;6.15;4.10;;;;;;;32.35;24.79;99999.19;12215725;19;20034;-84
2023/05/29 12:35:12;;;;;;;5.63;3.53;;;;;;;32.87;23.42;99994.34;12189844;19;20010;-84
2023/05/29 12:39:14;;;;;;;6.85;4.13;;;;;;;32.96;22.61;99994.00;12210126;19;20006;-83
2023/05/29 12:43:16;;;;;;;6.68;4.30;;;;;;;33.58;21.66;99991.97;12210446;19;20011;-80
2023/05/29 12:47:23;;;;;;;5.63;3.70;;;;;;;33.61;21.53;99986.66;12186851;19;20544;-82
2023/05/29 12:51:27;;;;;;;5.70;3.65;;;;;;;34.10;22.04;99990.91;12209620;19;20100;-83
2023/05/29 12:55:33;;;;;;;6.03;3.78;;;;;;;34.48;20.41;99986.47;12210381;19;20042;-84
2023/05/29 12:59:34;;;;;;;8.65;3.28;;;;;;;34.87;21.24;99983.59;12191643;19;20011;-84
2023/05/29 13:03:36;;;;;;;5.95;3.65;;;;;;;35.75;20.82;99986.63;12209849;19;20007;-83
2023/05/29 13:07:38;;;;;;;7.13;2.90;;;;;;;36.53;19.85;99978.81;12210674;19;20153;-84
2023/05/29 13:11:40;;;;;;;11.27;7.47;;;;;;;37.41;18.93;99964.75;12187270;19;20043;-83
2023/05/29 13:15:41;;;;;;;5.65;3.50;;;;;;;37.35;18.95;99966.47;12221407;19;20062;-83
2023/05/29 13:19:43;;;;;;;6.50;3.58;;;;;;;37.92;18.37;99970.66;12218237;19;20022;-85
2023/05/29 13:23:45;;;;;;;4.43;3.50;;;;;;;38.03;18.47;99971.34;12189136;19;20011;-86
2023/05/29 13:27:48;;;;;;;5.80;3.28;;;;;;;38.15;18.27;99958.44;12215059;19;20018;-85
2023/05/29 13:31:50;;;;;;;7.25;3.60;;;;;;;37.79;17.59;99966.75;12225238;19;20030;-84
2023/05/29 13:35:52;;;;;;;5.18;3.90;;;;;;;38.08;18.85;99956.50;12205720;19;20014;-84
2023/05/29 13:39:56;;;;;;;4.45;3.47;;;;;;;38.69;17.80;99957.56;12225895;19;20014;-83
2023/05/29 13:43:57;;;;;;;5.07;3.30;;;;;;;38.92;17.63;99951.81;12222461;19;20356;-81
2023/05/29 13:47:59;;;;;;;7.05;3.53;;;;;;;39.36;18.04;99964.13;12196142;19;20101;-85
2023/05/29 13:52:04;;;;;;;5.85;3.58;;;;;;;39.93;17.16;99953.44;12222793;19;20007;-86
2023/05/29 13:56:06;;;;;;;7.20;3.80;;;;;;;39.92;16.88;99959.63;12207897;19;20011;-85
2023/05/29 14:00:11;;;;;;;6.18;3.53;;;;;;;40.08;16.94;99951.84;12222973;19;20038;-85
2023/05/29 14:04:14;;;;;;;5.85;3.53;;;;;;;39.49;16.65;99943.28;12220653;19;20060;-85
2023/05/29 14:08:16;;;;;;;6.18;3.60;;;;;;;39.13;17.44;99944.00;12201244;19;20003;-85
2023/05/29 14:12:17;;;;;;;5.15;3.70;;;;;;;38.60;17.81;99940.84;12217788;19;20476;-84
2023/05/29 14:16:19;;;;;;;5.75;3.70;;;;;;;38.40;17.76;99937.91;12219480;19;20026;-84
2023/05/29 14:20:21;;;;;;;5.93;3.58;;;;;;;38.62;17.50;99931.78;12196948;19;20010;-84
2023/05/29 14:24:24;;;;;;;5.47;3.90;;;;;;;39.30;17.45;99939.97;12217171;19;20003;-82
2023/05/29 14:28:26;;;;;;;6.68;4.30;;;;;;;38.82;17.49;99941.28;12216668;19;20011;-82
2023/05/29 14:32:28;;;;;;;6.72;3.90;;;;;;;38.40;17.46;99937.91;12196334;19;20349;-83
2023/05/29 14:36:30;;;;;;;6.00;3.80;;;;;;;38.06;18.13;99938.84;12218338;19;20007;-83
2023/05/29 14:40:31;;;;;;;6.05;4.10;;;;;;;38.51;17.35;99938.53;12213433;19;20038;-84
2023/05/29 14:44:35;;;;;;;6.55;3.80;;;;;;;37.10;18.52;99938.03;12196968;19;20070;-83
2023/05/29 14:48:37;;;;;;;5.88;3.63;;;;;;;36.15;19.35;99937.69;12213154;19;20006;-83
2023/05/29 14:52:39;;;;;;;6.75;4.28;;;;;;;36.02;19.21;99940.19;12216727;19;20006;-82
2023/05/29 14:56:41;;;;;;;6.75;3.78;;;;;;;35.04;20.32;99929.56;12197067;19;20086;-84
2023/05/29 15:00:42;;;;;;;6.50;3.80;;;;;;;34.92;20.13;99937.38;12218004;19;20010;-84
2023/05/29 15:04:44;;;;;;;9.23;4.57;;;;;;;34.72;20.99;99941.09;12217420;19;20027;-84
2023/05/29 15:08:48;;;;;;;5.65;3.97;;;;;;;35.65;19.91;99933.03;12196914;19;20006;-83
2023/05/29 15:12:56;;;;;;;6.40;3.90;;;;;;;36.39;19.42;99930.09;12217421;19;20006;-82
2023/05/29 15:16:59;;;;;;;9.70;4.45;;;;;;;36.32;19.33;99930.16;12218364;19;20006;-81
2023/05/29 15:21:01;;;;;;;8.85;4.28;;;;;;;34.31;21.05;99924.34;12192321;19;20007;-82
2023/05/29 15:25:04;;;;;;;6.85;4.25;;;;;;;32.71;21.90;99928.22;12218564;19;20023;-82
2023/05/29 15:29:06;;;;;;;6.82;3.92;;;;;;;31.48;22.59;99931.09;12206219;19;20018;-83
2023/05/29 15:33:09;;;;;;;6.18;3.85;;;;;;;30.29;24.11;99922.84;12215574;19;20007;-84
2023/05/29 15:37:11;;;;;;;6.13;3.97;;;;;;;29.77;24.93;99927.16;12218186;19;20010;-83
2023/05/29 15:41:14;;;;;;;8.00;4.70;;;;;;;29.44;25.65;99922.81;12195304;19;20754;-83
2023/05/29 15:45:15;;;;;;;8.38;3.97;;;;;;;28.84;26.21;99928.00;12217353;19;20104;-81
2023/05/29 15:49:17;;;;;;;9.82;4.57;;;;;;;28.48;26.60;99927.16;12216622;19;20010;-83
2023/05/29 15:53:19;;;;;;;;;;;;;;;28.15;27.20;99931.19;12194417;19;20020;-82
2023/05/29 15:57:21;;;;;;;6.00;3.20;;;;;;;27.78;27.27;99932.56;12217086;19;19938;-81
2023/05/29 16:01:23;;;;;;;5.93;3.88;;;;;;;27.54;27.80;99913.72;12216283;19;20056;-86
2023/05/29 16:05:25;;;;;;;7.28;4.03;;;;;;;27.34;28.13;99935.41;12193086;19;20402;-81
2023/05/29 16:09:27;;;;;;;6.45;3.95;;;;;;;27.13;28.81;99925.06;12213798;19;20075;-82
2023/05/29 16:13:32;;;;;;;6.78;3.60;;;;;;;26.97;28.67;99922.16;12216131;19;20550;-83
2023/05/29 16:17:34;;;;;;;5.60;3.92;;;;;;;26.75;28.81;99925.53;12198611;19;20333;-84
2023/05/29 16:21:36;;;;;;;6.70;3.70;;;;;;;26.62;29.51;99938.00;12216962;19;20523;-82
2023/05/29 16:25:38;;;;;;;7.05;3.63;;;;;;;26.42;29.96;99934.94;12224458;19;20010;-81
2023/05/29 16:29:39;;;;;;;6.80;3.70;;;;;;;26.26;30.53;99934.81;12194089;19;20030;-83
2023/05/29 16:33:41;;;;;;;5.47;3.50;;;;;;;26.22;30.98;99936.69;12214031;19;19998;-81
2023/05/29 16:37:43;;;;;;;7.43;3.42;;;;;;;26.23;30.39;99937.50;12214638;19;20022;-82
2023/05/29 16:41:45;;;;;;;9.00;4.22;;;;;;;26.15;32.36;99936.47;12203751;19;20011;-83
2023/05/29 16:45:47;;;;;;;7.25;3.20;;;;;;;26.14;32.94;99934.78;12228037;19;20010;-82
2023/05/29 16:49:50;;;;;;;7.45;3.63;;;;;;;26.08;34.45;99937.03;12217224;19;20006;-82
2023/05/29 16:53:52;;;;;;;5.90;3.35;;;;;;;25.83;35.49;99941.81;12194041;19;20431;-83
2023/05/29 16:57:53;;;;;;;8.80;3.85;;;;;;;25.75;35.63;99934.22;12212473;19;20010;-83
2023/05/29 17:01:55;;;;;;;7.43;3.60;;;;;;;25.52;36.77;99938.63;12214032;19;20043;-83
2023/05/29 17:05:57;;;;;;;8.45;3.85;;;;;;;25.33;36.93;99923.03;12188770;19;20291;-82
2023/05/29 17:09:59;;;;;;;7.03;3.53;;;;;;;25.23;37.62;99943.22;12214948;19;20966;-85
2023/05/29 17:14:01;;;;;;;8.30;3.50;;;;;;;25.17;38.26;99936.97;12219652;19;20014;-79
2023/05/29 17:18:03;;;;;;;9.57;3.70;;;;;;;24.90;39.00;99938.31;12190680;19;20035;-80
2023/05/29 17:22:05;;;;;;;5.47;3.65;;;;;;;24.72;39.42;99939.63;12213347;19;20396;-84
2023/05/29 17:26:08;;;;;;;;;;;;;;;24.51;41.65;99940.41;12197606;19;20022;-79
2023/05/29 17:30:11;;;;;;;6.75;3.65;;;;;;;24.47;40.26;99961.94;12213635;19;19910;-82
2023/05/29 17:34:12;;;;;;;6.78;3.28;;;;;;;24.42;40.57;99953.72;12213263;19;20528;-81
2023/05/29 17:38:14;;;;;;;9.03;3.53;;;;;;;24.33;40.99;99959.34;12192321;19;20016;-82
2023/05/29 17:42:16;;;;;;;10.32;3.60;;;;;;;24.21;41.33;99961.22;12214003;19;20078;-81
2023/05/29 17:46:18;;;;;;;6.50;3.57;;;;;;;23.98;42.72;99969.91;12213500;19;20776;-81
2023/05/29 17:50:20;;;;;;;5.60;3.35;;;;;;;23.87;42.99;99963.81;12190711;19;20476;-82
2023/05/29 17:54:23;;;;;;;6.75;3.72;;;;;;;23.87;43.13;99974.25;12209975;19;20460;-83
2023/05/29 17:58:25;;;;;;;9.02;4.30;;;;;;;23.82;42.95;99975.25;12215712;19;20007;-81
2023/05/29 18:02:27;;;;;;;4.95;3.10;;;;;;;23.66;44.31;99982.53;12189408;19;20034;-81
2023/05/29 18:06:31;;;;;;;8.83;3.63;;;;;;;23.62;44.16;99984.38;12212565;19;20018;-82
2023/05/29 18:10:35;;;;;;;7.22;3.25;;;;;;;23.35;45.53;99982.72;12208074;19;20264;-80
2023/05/29 18:14:37;;;;;;;7.97;3.97;;;;;;;23.12;46.13;99982.91;12190723;19;20479;-80
2023/05/29 18:18:39;;;;;;;7.43;4.03;;;;;;;23.02;46.07;99988.00;12221416;19;20044;-81
2023/05/29 18:22:41;;;;;;;8.13;3.63;;;;;;;22.96;45.92;99991.00;12220782;19;20006;-81
2023/05/29 18:26:43;;;;;;;8.98;3.50;;;;;;;22.84;47.16;99984.31;12217928;19;20014;-80
2023/05/29 18:30:46;;;;;;;8.30;3.70;;;;;;;22.65;47.44;99991.03;12238907;19;20021;-81
2023/05/29 18:34:48;;;;;;;7.22;3.33;;;;;;;22.53;48.18;99990.84;12233340;19;20010;-80
2023/05/29 18:38:53;;;;;;;5.40;3.30;;;;;;;22.40;48.96;99992.63;12203869;19;20014;-82
2023/05/29 18:42:56;;;;;;;8.88;3.85;;;;;;;22.15;50.37;100002.53;12222412;19;20014;-82
2023/05/29 18:46:58;;;;;;;7.93;3.60;;;;;;;22.06;50.04;99996.06;12225274;19;20014;-80
2023/05/29 18:51:02;;;;;;;9.50;4.20;;;;;;;21.81;50.96;99997.59;12200402;19;20019;-81